Time;durP1;ratioP1;P1;durP2;ratioP2;P2;SDS_P1;SDS_P2;PMS_P1;PMS_P2;Temp;Humidity;BMP_temperature;BMP_pressure;BME280_temperature;BME280_humidity;BME280_pressure;Samples;Min_cycle;Max_cycle;Signal;HPM_P1;HPM_P2
2022/11/22 00:00:07;;;;;;;27.15;7.05;;;;;;;13.49;100.00;99014.58;1723235;83;21153;-77
2022/11/22 00:03:13;;;;;;;24.43;6.20;;;;;;;13.12;100.00;98991.66;1723185;82;21247;-77
2022/11/22 00:06:18;;;;;;;21.52;6.60;;;;;;;13.55;100.00;98984.31;1723164;82;21157;-77
2022/11/22 00:09:23;;;;;;;26.97;6.92;;;;;;;13.85;100.00;98990.95;1721935;83;21716;-77
2022/11/22 00:12:30;;;;;;;19.10;5.92;;;;;;;13.70;100.00;99007.83;1723164;82;21212;-77
2022/11/22 00:15:37;;;;;;;26.70;7.50;;;;;;;13.79;100.00;99014.70;1723196;83;21761;-77
2022/11/22 00:18:43;;;;;;;24.60;6.25;;;;;;;13.82;99.50;99010.11;1723293;83;21530;-77
2022/11/22 00:21:48;;;;;;;24.43;6.95;;;;;;;13.86;99.75;99020.95;1723199;82;21224;-77
2022/11/22 00:24:52;;;;;;;22.40;6.50;;;;;;;13.24;100.00;99018.20;1721771;83;21240;-77
2022/11/22 00:27:58;;;;;;;24.98;6.30;;;;;;;13.51;100.00;99018.80;1723139;82;21212;-77
2022/11/22 00:31:04;;;;;;;28.98;7.55;;;;;;;13.62;100.00;99009.49;1721593;83;21172;-77
2022/11/22 00:34:03;;;;;;;23.67;6.87;;;;;;;13.52;100.00;99015.52;1723217;83;21206;-77
2022/11/22 00:37:09;;;;;;;35.83;8.10;;;;;;;13.73;100.00;99022.47;1723117;82;21200;-77
2022/11/22 00:40:15;;;;;;;37.98;6.97;;;;;;;13.18;100.00;99020.98;1723204;83;21177;-77
2022/11/22 00:43:20;;;;;;;25.17;6.90;;;;;;;13.85;100.00;99017.91;1723201;82;21212;-77
2022/11/22 00:46:25;;;;;;;26.00;6.28;;;;;;;14.37;98.99;99022.44;1723092;82;21169;-77
2022/11/22 00:49:31;;;;;;;36.03;7.20;;;;;;;13.54;100.00;99007.88;1723061;83;21212;-77
2022/11/22 00:52:37;;;;;;;29.42;7.00;;;;;;;13.47;100.00;99016.19;1723154;82;21204;-77
2022/11/22 00:55:43;;;;;;;23.62;6.47;;;;;;;13.34;100.00;99020.44;1723136;83;21161;-77
2022/11/22 00:58:48;;;;;;;29.55;7.60;;;;;;;13.26;100.00;99018.80;1723183;83;21698;-77
2022/11/22 01:01:53;;;;;;;22.05;5.15;;;;;;;13.48;100.00;99007.41;1723166;82;21789;-77
2022/11/22 01:04:59;;;;;;;32.58;7.12;;;;;;;13.48;100.00;99007.41;1723247;83;21161;-77
2022/11/22 01:08:04;;;;;;;33.80;6.80;;;;;;;13.40;100.00;99009.91;1723175;82;21189;-77
2022/11/22 01:11:09;;;;;;;31.70;6.17;;;;;;;13.42;100.00;99020.16;1723247;83;21165;-77
2022/11/22 01:14:14;;;;;;;22.77;6.12;;;;;;;13.65;100.00;99018.67;1723204;83;21188;-77
2022/11/22 01:17:21;;;;;;;38.45;7.15;;;;;;;13.57;100.00;99024.45;1723053;82;21236;-77
2022/11/22 01:20:27;;;;;;;36.68;6.75;;;;;;;13.81;100.00;99022.17;1723241;83;21690;-77
2022/11/22 01:23:32;;;;;;;33.50;6.97;;;;;;;13.78;100.00;99023.48;1723093;82;21225;-77
2022/11/22 01:26:38;;;;;;;41.80;6.97;;;;;;;13.82;100.00;99014.23;1723241;82;21220;-77
2022/11/22 01:29:43;;;;;;;30.30;6.97;;;;;;;14.06;100.00;99024.83;1709730;83;21195;-77
2022/11/22 01:32:49;;;;;;;36.03;8.13;;;;;;;14.04;100.00;99020.11;1723133;82;21249;-78
2022/11/22 01:35:55;;;;;;;30.32;6.58;;;;;;;12.70;100.00;99018.29;1722997;83;21220;-77
2022/11/22 01:39:01;;;;;;;36.88;7.28;;;;;;;12.46;100.00;98997.95;1722789;82;21244;-76
2022/11/22 01:42:07;;;;;;;30.40;6.25;;;;;;;12.95;100.00;99013.36;1722576;82;21587;-78
2022/11/22 01:45:44;;;;;;;43.52;6.95;;;;;;;12.99;100.00;99014.06;1721931;83;21678;-76
2022/11/22 01:49:11;;;;;;;31.50;8.58;;;;;;;13.24;100.00;99020.11;1723043;83;21213;-77
2022/11/22 01:52:22;;;;;;;34.27;7.40;;;;;;;12.98;100.00;99014.27;1723132;82;21208;-78
2022/11/22 01:55:28;;;;;;;27.52;6.90;;;;;;;13.31;100.00;99020.88;1722165;83;21204;-78
2022/11/22 01:58:33;;;;;;;33.73;7.00;;;;;;;13.03;100.00;99018.05;1721695;82;21188;-77
2022/11/22 02:01:39;;;;;;;42.65;8.30;;;;;;;12.95;100.00;99016.94;1722855;82;21243;-77
2022/11/22 02:04:44;;;;;;;26.48;6.50;;;;;;;13.02;100.00;99018.24;1722373;83;21165;-76
2022/11/22 02:07:58;;;;;;;32.30;5.92;;;;;;;13.10;100.00;99014.39;1722115;82;21192;-78
2022/11/22 02:11:08;;;;;;;28.73;6.28;;;;;;;13.11;100.00;99017.44;1721697;82;21224;-78
2022/11/22 02:14:13;;;;;;;34.95;6.60;;;;;;;13.10;100.00;99011.65;1722777;83;21196;-77
2022/11/22 02:17:20;;;;;;;29.63;6.10;;;;;;;12.87;100.00;99011.71;1722414;82;21193;-76
2022/11/22 02:20:26;;;;;;;26.82;5.85;;;;;;;12.72;100.00;98999.69;1723002;83;21157;-76
2022/11/22 02:23:51;;;;;;;34.85;6.72;;;;;;;12.69;100.00;99002.87;1721645;82;21192;-77
2022/11/22 02:26:59;;;;;;;32.53;7.00;;;;;;;12.64;100.00;99007.34;1714683;82;21177;-77
2022/11/22 02:30:04;;;;;;;31.87;7.00;;;;;;;12.69;100.00;99005.61;1714139;84;21158;-76
2022/11/22 02:33:10;;;;;;;35.28;7.00;;;;;;;12.22;100.00;99002.84;1714079;82;21237;-76
2022/11/22 02:36:17;;;;;;;30.12;6.42;;;;;;;12.32;100.00;99010.05;1714038;82;21229;-76
2022/11/22 02:39:27;;;;;;;31.57;7.12;;;;;;;12.52;100.00;99010.80;1714083;84;21225;-76
2022/11/22 02:42:32;;;;;;;28.67;6.80;;;;;;;12.32;100.00;99011.42;1714189;82;21201;-76
2022/11/22 02:45:38;;;;;;;36.50;6.65;;;;;;;12.34;100.00;99008.48;1714069;84;21161;-77
2022/11/22 02:48:50;;;;;;;30.20;7.28;;;;;;;12.34;100.00;99009.33;1714116;84;21201;-77
2022/11/22 02:51:56;;;;;;;17.23;5.90;;;;;;;12.37;100.00;99002.55;1714040;82;21189;-76
2022/11/22 02:55:02;;;;;;;17.75;5.47;;;;;;;11.99;100.00;99001.99;1713976;83;21233;-76
2022/11/22 02:58:07;;;;;;;13.78;5.25;;;;;;;12.03;100.00;99008.19;1714015;82;21197;-76
2022/11/22 03:01:06;;;;;;;8.98;5.00;;;;;;;12.00;100.00;99011.39;1714177;84;21217;-77
2022/11/22 03:04:23;;;;;;;16.82;5.37;;;;;;;11.88;100.00;99014.48;1714218;83;21150;-77
2022/11/22 03:07:19;;;;;;;12.85;5.22;;;;;;;11.85;100.00;99017.64;1714153;82;21228;-77
2022/11/22 03:10:24;;;;;;;10.60;5.30;;;;;;;11.84;100.00;99020.60;1714110;83;21757;-77
2022/11/22 03:13:29;;;;;;;11.08;5.10;;;;;;;11.73;100.00;99020.72;1714135;82;21199;-77
2022/11/22 03:16:35;;;;;;;13.83;6.17;;;;;;;11.81;100.00;99023.23;1714085;82;21765;-77
2022/11/22 03:19:40;;;;;;;17.00;6.65;;;;;;;11.81;100.00;99025.10;1714238;84;21738;-76
2022/11/22 03:22:46;;;;;;;13.28;6.37;;;;;;;11.76;100.00;99021.64;1712985;82;21204;-77
2022/11/22 03:25:50;;;;;;;18.32;6.30;;;;;;;11.61;100.00;99027.90;1713894;83;21205;-76
2022/11/22 03:28:57;;;;;;;15.32;6.25;;;;;;;11.43;100.00;99029.42;1723628;83;21144;-77
2022/11/22 03:32:02;;;;;;;28.27;8.70;;;;;;;11.59;100.00;99024.55;1727699;83;22157;-77
2022/11/22 03:35:09;;;;;;;20.97;9.53;;;;;;;11.41;100.00;99038.89;1736218;82;21199;-77
2022/11/22 03:38:07;;;;;;;17.85;8.18;;;;;;;11.55;100.00;99049.30;1735121;82;21230;-77
2022/11/22 03:41:01;;;;;;;14.55;7.20;;;;;;;11.43;100.00;99058.17;1735907;81;21218;-76
2022/11/22 03:44:06;;;;;;;8.30;5.80;;;;;;;11.29;100.00;99055.10;1736251;82;21159;-77
2022/11/22 03:47:12;;;;;;;13.35;6.17;;;;;;;11.29;100.00;99056.47;1735016;82;21797;-77
2022/11/22 03:50:18;;;;;;;9.70;5.12;;;;;;;11.07;100.00;99055.02;1736207;82;21751;-77
2022/11/22 03:53:24;;;;;;;11.28;5.78;;;;;;;10.98;100.00;99062.06;1735041;82;21739;-76
2022/11/22 03:56:30;;;;;;;7.47;4.80;;;;;;;10.86;100.00;99051.41;1735439;81;21194;-77
2022/11/22 03:59:36;;;;;;;9.88;5.45;;;;;;;11.09;100.00;99059.75;1736260;82;21707;-77
2022/11/22 04:02:43;;;;;;;29.72;15.32;;;;;;;10.89;100.00;99063.31;1735480;82;21249;-76
2022/11/22 04:05:50;;;;;;;28.50;16.32;;;;;;;10.77;100.00;99064.13;1736222;82;21167;-76
2022/11/22 04:08:57;;;;;;;26.60;15.98;;;;;;;10.80;100.00;99063.19;1736319;82;21190;-76
2022/11/22 07:24:47;;;;;;;15.78;12.82;;;;;;;5.06;100.00;99192.66;1825979;76;28187;-79
2022/11/22 07:27:58;;;;;;;17.90;12.25;;;;;;;5.06;100.00;99198.08;1803573;78;21226;-78
2022/11/22 07:31:15;;;;;;;16.65;12.10;;;;;;;5.04;100.00;99202.83;1788706;79;21145;-79
2022/11/22 07:34:40;;;;;;;13.90;9.35;;;;;;;5.00;100.00;99206.38;1771813;79;21933;-80
2022/11/22 07:37:58;;;;;;;15.08;10.25;;;;;;;4.99;100.00;99198.42;1766275;79;21835;-79
2022/11/22 07:41:10;;;;;;;12.58;9.38;;;;;;;4.84;100.00;99196.34;1729789;82;21172;-80
2022/11/22 07:44:21;;;;;;;9.58;7.65;;;;;;;4.86;100.00;99194.84;1729426;81;21197;-80
2022/11/22 07:47:28;;;;;;;;;;;;;;;4.83;100.00;99197.36;1768114;80;21207;-80
2022/11/22 07:50:32;;;;;;;10.30;7.45;;;;;;;4.90;100.00;99199.42;1761692;81;20234;-78
2022/11/22 07:53:38;;;;;;;8.10;5.92;;;;;;;4.97;100.00;99213.98;1749919;80;21207;-79
2022/11/22 07:56:43;;;;;;;6.42;5.55;;;;;;;4.99;100.00;99213.33;1756824;80;21220;-79
2022/11/22 07:59:48;;;;;;;7.78;6.05;;;;;;;5.00;100.00;99202.82;1765162;80;21152;-78
2022/11/22 08:02:57;;;;;;;6.15;5.42;;;;;;;5.16;100.00;99205.53;1763687;80;21168;-79
2022/11/22 08:06:08;;;;;;;9.03;7.42;;;;;;;5.19;100.00;99211.14;1771388;79;21213;-77
2022/11/22 08:09:16;;;;;;;9.80;7.25;;;;;;;4.91;100.00;99214.66;1740379;80;21383;-79
2022/11/22 08:12:27;;;;;;;9.78;7.65;;;;;;;4.94;100.00;99225.14;1730124;81;21185;-78
2022/11/22 08:20:13;;;;;;;;;;;;;;;;;;;;;
2022/11/22 08:23:33;;;;;;;9.50;6.10;;;;;;;5.37;100.00;99222.67;1746285;79;21253;-78
2022/11/22 08:26:41;;;;;;;7.45;5.92;;;;;;;5.60;100.00;99212.83;1693306;79;40859;-78
2022/11/22 08:29:48;;;;;;;5.80;5.03;;;;;;;5.69;100.00;99210.92;1715117;82;21199;-79
2022/11/22 08:33:05;;;;;;;9.63;5.22;;;;;;;5.72;100.00;99211.95;1685745;82;21660;-80
2022/11/22 08:36:13;;;;;;;5.97;5.15;;;;;;;5.67;97.89;99214.33;1709913;82;21167;-78
2022/11/22 08:39:18;;;;;;;7.08;4.90;;;;;;;5.49;98.71;99221.30;1704022;82;21228;-79
2022/11/22 08:42:25;;;;;;;6.83;4.60;;;;;;;6.14;96.97;99211.71;1707028;82;21240;-78
2022/11/22 08:45:31;;;;;;;5.45;4.45;;;;;;;5.67;97.24;99212.98;1704061;82;21204;-79
2022/11/22 08:48:46;;;;;;;5.10;4.60;;;;;;;5.56;99.51;99211.47;1699843;84;21259;-79
2022/11/22 08:51:52;;;;;;;7.62;4.70;;;;;;;5.81;98.69;99209.56;1700188;82;21187;-77
2022/11/22 08:54:58;;;;;;;5.25;4.62;;;;;;;6.04;96.15;99200.73;1676368;84;21254;-78
2022/11/22 08:58:08;;;;;;;5.75;4.80;;;;;;;5.89;96.33;99217.70;1659935;85;21803;-79
2022/11/22 09:01:20;;;;;;;6.58;4.33;;;;;;;5.83;95.39;99236.52;1652434;85;21776;-79
2022/11/22 09:04:26;;;;;;;4.55;3.90;;;;;;;5.61;96.79;99224.52;1653257;85;21197;-79
2022/11/22 09:07:32;;;;;;;4.70;4.20;;;;;;;5.84;96.88;99224.66;1654878;85;21274;-80
2022/11/22 09:10:40;;;;;;;5.30;4.80;;;;;;;5.74;96.50;99233.47;1632834;85;21838;-79
2022/11/22 09:13:46;;;;;;;5.30;4.40;;;;;;;5.96;95.93;99231.95;1645955;85;21269;-78
2022/11/22 09:16:54;;;;;;;5.15;4.65;;;;;;;5.93;95.71;99241.78;1651113;85;21284;-79
2022/11/22 09:19:59;;;;;;;5.20;4.67;;;;;;;5.98;95.30;99222.63;1652597;85;21820;-79
2022/11/22 09:22:59;;;;;;;4.62;4.10;;;;;;;5.99;95.80;99208.55;1653558;85;22320;-79
2022/11/22 09:26:10;;;;;;;5.72;4.37;;;;;;;5.66;95.92;99212.64;1662917;84;97825;-78
2022/11/22 09:29:16;;;;;;;6.53;4.60;;;;;;;5.74;95.39;99207.70;1662929;84;21188;-79
2022/11/22 09:32:26;;;;;;;5.05;4.45;;;;;;;5.55;95.33;99203.00;1657097;85;21185;-79
2022/11/22 09:35:32;;;;;;;5.55;4.62;;;;;;;5.78;93.95;99213.97;1661255;85;21324;-79
2022/11/22 09:38:37;;;;;;;5.65;5.05;;;;;;;6.36;90.48;99197.89;1663495;85;21917;-79
2022/11/22 09:42:11;;;;;;;4.85;4.10;;;;;;;6.25;89.58;99193.34;1661995;85;21317;-79
2022/11/22 09:45:59;;;;;;;6.25;4.53;;;;;;;6.06;89.76;99195.95;1682738;84;21878;-78
2022/11/22 09:49:46;;;;;;;4.65;4.15;;;;;;;5.89;90.51;99187.84;1653245;84;21375;-79
2022/11/22 09:53:04;;;;;;;6.80;4.60;;;;;;;6.20;89.32;99183.52;1670053;84;21241;-78
2022/11/22 09:56:14;;;;;;;8.48;5.67;;;;;;;6.24;88.63;99178.08;1666540;84;21228;-79
2022/11/22 09:59:29;;;;;;;5.20;4.70;;;;;;;5.87;89.71;99195.29;1669436;84;22183;-78
2022/11/22 10:02:44;;;;;;;7.03;5.58;;;;;;;5.89;90.70;99195.98;1662295;84;21233;-78
2022/11/22 10:05:57;;;;;;;7.12;6.15;;;;;;;6.16;90.51;99187.09;1663288;84;21226;-79
2022/11/22 10:09:44;;;;;;;9.65;5.55;;;;;;;6.15;90.67;99188.12;1657257;84;21191;-78
2022/11/22 10:12:58;;;;;;;9.85;8.00;;;;;;;6.27;90.62;99185.89;1657785;84;21219;-79
2022/11/22 10:16:19;;;;;;;9.43;8.43;;;;;;;6.08;90.63;99192.58;1678210;85;21220;-78
2022/11/22 10:19:36;;;;;;;15.15;9.63;;;;;;;6.34;89.75;99179.55;1651534;85;21614;-79
2022/11/22 10:22:43;;;;;;;10.20;8.55;;;;;;;6.33;89.03;99194.67;1685864;83;21270;-78
2022/11/22 10:26:12;;;;;;;12.20;9.63;;;;;;;6.36;88.81;99196.53;1673751;83;36443;-79
2022/11/22 10:29:45;;;;;;;17.23;11.77;;;;;;;6.26;89.26;99186.40;1710966;83;21816;-80
2022/11/22 10:33:12;;;;;;;18.27;10.75;;;;;;;6.09;89.57;99191.55;1752742;80;21670;-78
2022/11/22 10:36:32;;;;;;;12.68;10.32;;;;;;;6.17;89.15;99205.09;1751183;80;21344;-79
2022/11/22 10:39:44;;;;;;;16.02;12.30;;;;;;;6.29;88.76;99200.97;1746320;80;21259;-79
2022/11/22 10:43:08;;;;;;;17.75;12.82;;;;;;;6.32;89.68;99200.63;1749073;80;21860;-77
2022/11/22 10:46:38;;;;;;;15.88;11.08;;;;;;;6.59;88.89;99203.91;1738376;80;21282;-78
2022/11/22 10:50:18;;;;;;;16.67;13.13;;;;;;;6.93;85.95;99189.09;1700238;81;21223;-77
2022/11/22 10:54:02;;;;;;;18.07;13.35;;;;;;;5.50;88.86;99191.78;1748102;80;21207;-78
2022/11/22 10:57:38;;;;;;;15.53;12.33;;;;;;;4.83;94.19;99200.06;1749626;80;22465;-77
2022/11/22 11:00:57;;;;;;;19.23;13.43;;;;;;;4.66;96.65;99203.78;1760056;80;22324;-79
2022/11/22 11:04:21;;;;;;;16.75;12.33;;;;;;;4.63;97.30;99208.16;1736062;80;21197;-82
2022/11/22 11:07:33;;;;;;;13.72;10.65;;;;;;;4.58;97.59;99207.81;1757283;80;21302;-83
2022/11/22 11:10:42;;;;;;;14.90;9.35;;;;;;;4.57;97.57;99196.64;1763620;80;21207;-82
2022/11/22 11:14:03;;;;;;;10.65;8.70;;;;;;;4.70;96.74;99193.44;1705880;82;21271;-82
2022/11/22 11:17:09;;;;;;;19.05;9.00;;;;;;;4.69;96.58;99187.69;1724019;81;21503;-81
2022/11/22 11:20:30;;;;;;;18.90;9.45;;;;;;;4.80;96.29;99189.59;1724066;81;21268;-81
2022/11/22 11:23:40;;;;;;;15.03;8.65;;;;;;;4.84;95.80;99190.92;1721039;83;21195;-83
2022/11/22 11:26:45;;;;;;;11.38;8.43;;;;;;;4.82;96.42;99182.12;1716878;83;21772;-83
2022/11/22 11:30:08;;;;;;;14.28;8.90;;;;;;;4.81;96.52;99181.79;1677328;84;21215;-83
2022/11/22 11:33:25;;;;;;;16.70;10.40;;;;;;;4.68;96.75;99167.88;1756556;81;21180;-83
2022/11/22 11:36:32;;;;;;;15.98;9.80;;;;;;;4.67;96.65;99168.90;1755195;81;21228;-82
2022/11/22 11:39:41;;;;;;;13.55;8.43;;;;;;;4.66;96.20;99179.88;1725108;83;21378;-82
2022/11/22 11:42:47;;;;;;;19.30;9.53;;;;;;;4.51;96.22;99177.81;1711618;83;21257;-83
2022/11/22 11:45:53;;;;;;;11.18;8.28;;;;;;;4.42;95.47;99180.66;1759168;80;21188;-84
2022/11/22 11:49:02;;;;;;;10.63;8.65;;;;;;;4.41;95.79;99182.53;1762397;80;21196;-84
2022/11/22 11:52:21;;;;;;;12.95;9.08;;;;;;;4.31;96.27;99166.42;1718881;83;21249;-82
2022/11/22 11:55:27;;;;;;;9.75;8.20;;;;;;;4.24;96.93;99177.58;1741115;81;21430;-82
2022/11/22 11:58:32;;;;;;;8.80;7.92;;;;;;;4.22;97.06;99192.27;1744165;81;22095;-82
2022/11/22 12:01:41;;;;;;;9.90;6.28;;;;;;;4.18;97.46;99202.56;1718990;83;21672;-83
2022/11/22 12:05:07;;;;;;;8.65;6.75;;;;;;;4.28;97.32;99209.20;1748171;81;21791;-81
2022/11/22 12:08:36;;;;;;;7.80;6.65;;;;;;;4.25;97.05;99217.16;1753152;81;21714;-82
2022/11/22 12:11:48;;;;;;;6.05;5.45;;;;;;;4.28;96.78;99216.84;1719212;83;21257;-83
2022/11/22 12:14:59;;;;;;;8.05;5.47;;;;;;;4.18;96.98;99213.91;1751217;81;21857;-82
2022/11/22 12:18:30;;;;;;;6.00;5.40;;;;;;;4.16;97.13;99203.76;1745386;81;21198;-83
2022/11/22 12:22:09;;;;;;;5.80;5.00;;;;;;;4.20;96.95;99192.45;1722885;81;21229;-82
2022/11/22 12:25:45;;;;;;;5.30;4.80;;;;;;;4.20;96.65;99202.42;1740568;81;21203;-82
2022/11/22 12:28:52;;;;;;;6.78;5.55;;;;;;;4.29;96.26;99201.45;1753445;80;21801;-83
2022/11/22 12:32:19;;;;;;;6.50;5.78;;;;;;;4.35;95.80;99226.00;1753630;81;21767;-82
2022/11/22 12:35:30;;;;;;;6.45;5.55;;;;;;;4.32;95.63;99219.55;1746186;81;21187;-80
2022/11/22 12:38:43;;;;;;;7.78;6.83;;;;;;;4.44;94.52;99223.34;1744449;81;21168;-82
2022/11/22 12:41:49;;;;;;;8.73;7.67;;;;;;;4.41;93.59;99227.70;1745117;81;21741;-83
2022/11/22 12:45:15;;;;;;;7.78;6.97;;;;;;;4.28;94.00;99222.27;1751813;81;21726;-80
2022/11/22 12:48:26;;;;;;;7.22;6.53;;;;;;;4.18;93.95;99217.96;1758419;81;21785;-81
2022/11/22 12:51:39;;;;;;;6.92;6.03;;;;;;;4.14;94.45;99206.64;1750201;81;21239;-83
2022/11/22 12:55:04;;;;;;;18.80;13.40;;;;;;;4.03;94.62;99215.02;1695384;84;21812;-81
2022/11/22 12:58:47;;;;;;;7.22;6.47;;;;;;;3.96;95.14;99221.59;1691234;84;21290;-82
2022/11/22 13:02:02;;;;;;;10.38;7.00;;;;;;;4.01;94.99;99216.54;1691170;83;21656;-82
2022/11/22 13:05:13;;;;;;;12.43;8.78;;;;;;;3.97;94.40;99221.92;1696633;84;21213;-82
2022/11/22 13:08:45;;;;;;;6.30;5.67;;;;;;;4.03;94.27;99228.55;1717347;83;21211;-82
2022/11/22 13:12:01;;;;;;;8.10;5.25;;;;;;;3.98;94.21;99231.73;1717593;83;21197;-82
2022/11/22 13:15:07;;;;;;;7.15;5.30;;;;;;;3.98;94.31;99237.66;1756509;81;21480;-82
2022/11/22 13:18:16;;;;;;;5.75;5.25;;;;;;;4.18;93.25;99232.34;1750612;81;21212;-81
2022/11/22 13:21:48;;;;;;;6.40;5.70;;;;;;;4.14;93.12;99237.76;1728941;81;21124;-82
2022/11/22 13:25:12;;;;;;;5.85;5.33;;;;;;;4.06;93.08;99229.08;1690421;83;21788;-81
2022/11/22 16:16:21;;;;;;;9.38;8.45;;;;;;;1.84;100.00;99399.34;1897012;75;22689;-76
2022/11/22 16:19:30;;;;;;;10.68;8.63;;;;;;;1.88;100.00;99412.86;1784258;79;21700;-75
2022/11/22 16:22:39;;;;;;;9.83;7.75;;;;;;;1.85;100.00;99405.93;1800255;79;21154;-75
2022/11/22 16:25:47;;;;;;;8.25;7.15;;;;;;;1.89;100.00;99408.70;1785907;79;21191;-75
2022/11/22 16:28:54;;;;;;;8.80;7.45;;;;;;;1.93;100.00;99410.59;1800478;79;21856;-77
2022/11/22 16:32:07;;;;;;;8.10;6.75;;;;;;;1.91;100.00;99410.73;1786029;80;21136;-75
2022/11/22 16:35:21;;;;;;;9.83;8.33;;;;;;;1.92;100.00;99407.54;1800489;79;21185;-77
2022/11/22 16:38:29;;;;;;;9.80;7.50;;;;;;;1.93;100.00;99402.50;1786004;79;21220;-75
2022/11/22 16:41:35;;;;;;;8.58;6.78;;;;;;;1.95;100.00;99388.39;1800493;79;21702;-75
2022/11/22 16:44:41;;;;;;;8.00;6.62;;;;;;;2.01;100.00;99399.44;1773282;80;21585;-75
2022/11/22 16:47:49;;;;;;;10.13;7.55;;;;;;;1.87;100.00;99405.77;1784595;80;21216;-76
2022/11/22 16:51:09;;;;;;;10.30;7.20;;;;;;;1.76;100.00;99413.52;1783845;80;21740;-76
2022/11/22 16:54:17;;;;;;;8.78;6.78;;;;;;;1.87;100.00;99414.72;1784465;80;21827;-77
2022/11/22 16:57:23;;;;;;;8.38;7.08;;;;;;;1.94;100.00;99413.16;1784509;80;21192;-76
2022/11/22 17:00:29;;;;;;;8.83;6.85;;;;;;;1.88;100.00;99404.77;1800585;79;21172;-76
2022/11/22 17:03:35;;;;;;;8.90;5.97;;;;;;;1.99;100.00;99408.69;1800732;79;21157;-75
2022/11/22 17:06:43;;;;;;;8.15;7.12;;;;;;;2.01;100.00;99411.58;1800610;79;21157;-77
2022/11/22 17:09:51;;;;;;;12.53;8.05;;;;;;;2.10;100.00;99406.33;1800514;79;21219;-76
2022/11/22 17:12:57;;;;;;;9.60;7.50;;;;;;;2.15;100.00;99419.73;1800510;79;21203;-76
2022/11/22 17:16:03;;;;;;;8.78;7.33;;;;;;;2.08;100.00;99419.97;1752124;81;21203;-75
2022/11/22 17:19:09;;;;;;;10.20;8.40;;;;;;;2.00;100.00;99421.17;1767569;81;21228;-75
2022/11/22 17:22:17;;;;;;;10.30;8.05;;;;;;;1.91;100.00;99419.33;1752980;82;21195;-76
2022/11/22 17:25:24;;;;;;;8.95;7.97;;;;;;;1.81;100.00;99422.53;1773491;81;21200;-77
2022/11/22 17:28:30;;;;;;;10.75;8.60;;;;;;;2.40;100.00;99421.45;1778599;77;21737;-76
2022/11/22 17:31:35;;;;;;;11.85;9.58;;;;;;;2.39;98.90;99425.16;1784406;80;21171;-75
2022/11/22 17:34:40;;;;;;;11.20;9.65;;;;;;;1.99;100.00;99435.16;1798409;80;21810;-76
2022/11/22 17:37:47;;;;;;;11.33;9.28;;;;;;;2.00;100.00;99437.36;1784862;80;21715;-76
2022/11/22 17:40:53;;;;;;;12.90;10.45;;;;;;;2.04;100.00;99435.58;1806229;79;21156;-76
2022/11/22 17:43:57;;;;;;;14.53;11.53;;;;;;;2.03;100.00;99441.12;1806061;79;21208;-77
2022/11/22 17:47:03;;;;;;;14.03;11.38;;;;;;;2.06;100.00;99439.47;1805442;79;21538;-76
2022/11/22 17:50:08;;;;;;;12.00;9.98;;;;;;;1.96;100.00;99443.53;1804066;79;21192;-77
2022/11/22 17:53:14;;;;;;;13.62;11.68;;;;;;;2.30;100.00;99445.76;1785094;80;21191;-76
2022/11/22 17:56:20;;;;;;;13.95;10.78;;;;;;;2.22;98.71;99439.75;1799246;80;21181;-76
2022/11/22 17:59:25;;;;;;;15.35;11.70;;;;;;;2.15;98.84;99435.91;1784574;80;21195;-77
2022/11/22 18:02:31;;;;;;;15.53;12.28;;;;;;;2.19;98.95;99437.84;1783585;80;21161;-76
2022/11/22 18:05:38;;;;;;;12.20;10.50;;;;;;;2.19;98.16;99437.84;1780799;80;21252;-77
2022/11/22 18:08:43;;;;;;;13.93;11.78;;;;;;;2.10;98.57;99431.45;1780367;80;21754;-77
2022/11/22 18:11:48;;;;;;;14.13;10.68;;;;;;;2.08;98.50;99430.75;1781207;80;21149;-78
2022/11/22 18:14:55;;;;;;;14.73;11.55;;;;;;;2.24;97.74;99447.70;1779559;80;21763;-78
2022/11/22 18:18:03;;;;;;;15.38;10.78;;;;;;;2.26;96.56;99439.83;1760327;81;21189;-77
2022/11/22 18:21:12;;;;;;;16.37;11.65;;;;;;;2.49;95.46;99447.09;1758534;81;21173;-75
2022/11/22 18:24:18;;;;;;;14.98;10.80;;;;;;;2.57;94.20;99455.80;1758333;81;21200;-75
2022/11/22 18:27:24;;;;;;;15.15;12.07;;;;;;;2.84;93.18;99455.52;1758742;81;21744;-77
2022/11/22 18:30:31;;;;;;;15.48;11.05;;;;;;;2.96;92.50;99461.91;1758841;81;21193;-79
2022/11/22 18:33:38;;;;;;;14.60;10.95;;;;;;;3.25;90.90;99461.80;1760129;81;21200;-77
2022/11/22 18:36:44;;;;;;;15.10;12.30;;;;;;;3.85;88.54;99464.81;1758740;81;21748;-77
2022/11/22 18:39:51;;;;;;;13.88;10.90;;;;;;;2.84;90.99;99469.02;1759522;81;21707;-75
2022/11/22 18:42:57;;;;;;;13.98;10.90;;;;;;;2.65;91.91;99468.08;1758750;81;21196;-79
2022/11/22 18:46:10;;;;;;;15.00;11.68;;;;;;;2.80;92.01;99465.25;1758520;81;21177;-76
2022/11/22 18:49:15;;;;;;;13.35;11.10;;;;;;;2.80;91.53;99463.90;1760009;81;21200;-76
2022/11/22 18:52:22;;;;;;;15.78;11.78;;;;;;;2.89;91.02;99477.02;1760679;81;21157;-76
2022/11/22 18:55:26;;;;;;;14.40;11.25;;;;;;;2.84;90.46;99478.47;1760732;81;21200;-78
2022/11/22 18:58:33;;;;;;;14.55;11.65;;;;;;;2.65;91.28;99479.38;1760797;81;21196;-76
2022/11/22 19:01:39;;;;;;;15.13;11.68;;;;;;;2.56;91.10;99487.85;1760659;81;21745;-76
2022/11/22 19:04:45;;;;;;;15.93;12.25;;;;;;;2.66;91.18;99476.52;1760767;81;21852;-76
2022/11/22 19:07:55;;;;;;;15.98;12.07;;;;;;;2.84;90.54;99471.22;1760616;81;21169;-76
2022/11/22 19:11:04;;;;;;;16.73;11.95;;;;;;;2.79;89.07;99489.72;1760719;81;21149;-77
2022/11/22 19:14:09;;;;;;;17.10;12.40;;;;;;;2.83;89.25;99491.63;1760790;81;21212;-78
2022/11/22 19:17:14;;;;;;;15.88;11.80;;;;;;;2.96;88.86;99494.83;1764691;80;21195;-76
2022/11/22 19:20:22;;;;;;;15.90;12.45;;;;;;;2.80;89.01;99492.26;1786684;80;21714;-76
2022/11/22 19:23:30;;;;;;;16.55;12.20;;;;;;;2.83;89.14;99498.38;1785602;80;21706;-76
2022/11/22 19:26:36;;;;;;;15.48;11.55;;;;;;;2.92;88.26;99516.41;1786345;80;21169;-76
2022/11/22 19:29:42;;;;;;;14.78;11.55;;;;;;;2.85;88.53;99511.23;1786325;80;21184;-78
2022/11/22 19:32:48;;;;;;;16.17;12.60;;;;;;;2.81;88.60;99517.41;1786404;80;21197;-76
2022/11/22 19:36:05;;;;;;;15.48;11.97;;;;;;;2.95;88.64;99533.16;1786235;80;21161;-76
2022/11/22 19:39:12;;;;;;;15.83;11.10;;;;;;;3.02;88.73;99532.94;1786053;80;21188;-76
2022/11/22 19:42:19;;;;;;;14.43;10.70;;;;;;;3.21;87.90;99536.58;1786138;80;22065;-77
2022/11/22 19:45:26;;;;;;;16.32;11.75;;;;;;;3.44;86.90;99537.05;1786182;80;21200;-78
2022/11/22 19:48:31;;;;;;;16.75;11.48;;;;;;;3.38;86.40;99544.38;1785024;80;21764;-77
2022/11/22 19:51:39;;;;;;;14.05;10.75;;;;;;;3.20;86.81;99550.59;1786561;80;21137;-77
2022/11/22 19:54:45;;;;;;;15.63;11.43;;;;;;;3.23;87.18;99555.68;1785162;80;21252;-78
2022/11/22 19:57:51;;;;;;;14.58;10.93;;;;;;;3.30;87.48;99550.55;1785121;80;21192;-78
2022/11/22 20:00:57;;;;;;;14.80;11.43;;;;;;;3.47;86.77;99553.80;1786575;80;21173;-77
2022/11/22 20:04:11;;;;;;;14.05;11.30;;;;;;;3.72;86.46;99564.95;1785500;80;21697;-76
2022/11/22 20:07:16;;;;;;;16.75;12.23;;;;;;;3.69;86.05;99570.14;1786701;80;21157;-77
2022/11/22 20:10:23;;;;;;;17.87;12.93;;;;;;;3.72;86.00;99573.06;1785267;80;21780;-77
2022/11/22 20:13:29;;;;;;;15.00;11.00;;;;;;;3.31;87.85;99569.82;1786787;80;21153;-77
2022/11/22 20:16:35;;;;;;;14.23;10.98;;;;;;;3.74;86.81;99571.89;1786879;80;21133;-77
2022/11/22 20:19:40;;;;;;;15.55;11.73;;;;;;;3.85;85.95;99566.27;1783016;80;21184;-78
2022/11/22 20:22:46;;;;;;;13.70;11.12;;;;;;;3.87;85.74;99577.47;1781193;80;21152;-77
2022/11/22 20:25:52;;;;;;;12.80;9.65;;;;;;;3.77;85.80;99578.37;1781155;80;21149;-79
2022/11/22 20:29:07;;;;;;;19.50;10.38;;;;;;;4.03;84.86;99578.98;1780984;80;21199;-77
2022/11/22 20:32:12;;;;;;;13.43;9.95;;;;;;;3.41;86.73;99586.00;1777405;81;21138;-77
2022/11/22 20:35:18;;;;;;;12.95;9.83;;;;;;;3.66;86.35;99589.87;1781143;80;21220;-77
2022/11/22 20:38:24;;;;;;;13.90;10.25;;;;;;;3.79;85.48;99591.73;1774846;81;21162;-78
2022/11/22 20:41:32;;;;;;;12.65;10.10;;;;;;;3.81;85.83;99597.36;1781208;80;21161;-78
2022/11/22 20:44:37;;;;;;;12.58;9.83;;;;;;;3.90;85.42;99602.34;1779472;80;21193;-78
2022/11/22 20:47:43;;;;;;;11.83;9.53;;;;;;;3.65;86.16;99607.95;1781144;80;21156;-78
2022/11/22 20:50:48;;;;;;;11.18;8.73;;;;;;;3.52;86.55;99605.58;1781224;80;21716;-79
2022/11/22 20:53:54;;;;;;;10.38;8.50;;;;;;;3.54;87.23;99602.24;1757912;80;21220;-78